Nearby METAR Reports

 

KEDC - Austin Exec, Texas, USA
Distance from station: SSE 10mi, 17km
Updated: Wed, 17-Jan-2018 12:55am CST
Clear
Clear
 
Temperature: 21°F , -6°C
Dew Point: 10°F , -12°C
Humidity: 63%
Barometer: 30.73 inHg , 1040.6 hPa
Clouds: Clear
Visibility: 10 miles , 16 km
2018/01/17 06:55 KEDC 170655Z AUTO 10SM CLR M06/M12 A3073 RMK AO2
KGTU - Georgetown, Texas, USA
Distance from station: NNW 11mi, 17km
Updated: Wed, 17-Jan-2018 12:56am CST
Clear
Clear
 Wind from NNW
Wind: NNW 8 mph , 13 km/h
Temperature: 19°F , -7°C
Wind Chill: 9°F , -13°C
Dew Point: 7°F , -14°C
Humidity: 58%
Barometer: 30.73 inHg , 1040.6 hPa
Clouds: Clear
Visibility: 10 miles , 16 km
2018/01/17 06:56 KGTU 170656Z AUTO 34007KT 10SM CLR M07/M14 A3073 RMK AO2 SLP420 T10671139 FZRANO
 
KATT - Austin/Mabry, Texas, USA
Distance from station: SSW 18mi, 30km
Updated: Wed, 17-Jan-2018 12:51am CST
Clear
Clear
 Wind from NNW
Wind: NNW 5 mph , 7 km/h
Temperature: 27°F , -3°C
Wind Chill: 21°F , -6°C
Dew Point: 5°F , -15°C
Humidity: 39%
Barometer: 30.73 inHg , 1040.6 hPa
Clouds: Clear
Visibility: 10 miles , 16 km
2018/01/17 06:51 KATT 170651Z AUTO 34004KT 10SM CLR M03/M15 A3073 RMK AO2 SLP419 T10331150 $
KRYW - Lago Vista, Texas, USA
Distance from station: W 22mi, 35km
Updated: Wed, 17-Jan-2018 1:15am CST
Clear
Clear
 Wind from N
Wind: N 6 mph , 9 km/h
Temperature: 23°F , -5°C
Wind Chill: 16°F , -9°C
Dew Point: 3°F , -16°C
Humidity: 42%
Barometer: 30.68 inHg , 1038.9 hPa
Clouds: Clear
Visibility: 10 miles , 16 km
2018/01/17 07:15 KRYW 170715Z AUTO 35005KT 10SM CLR M05/M16 A3068 RMK AO2 T10551157
 
KAUS - Austin, Texas, USA
Distance from station: S 25mi, 41km
Updated: Wed, 17-Jan-2018 12:53am CST
Few Clouds
Few Clouds
 Wind from N
Wind: N 9 mph , 15 km/h
Temperature: 23°F , -5°C
Wind Chill: 13°F , -11°C
Dew Point: 12°F , -11°C
Humidity: 63%
Barometer: 30.72 inHg , 1040.3 hPa
Clouds: Few Clouds
Visibility: 10 miles , 16 km
Cloud details: Few Clouds 8000 ft
2018/01/17 06:53 KAUS 170653Z 35008KT 10SM FEW080 M05/M11 A3072 RMK AO2 SLP415 T10501111 $
KGRK - Gray/Ft Hood, Texas, USA
Distance from station: NNW 38mi, 62km
Updated: Wed, 17-Jan-2018 12:58am CST
Clear
Clear
 Wind from N
Wind: N 9 mph , 15 km/h
Temperature: 14°F , -10°C
Wind Chill: 2°F , -17°C
Dew Point: 5°F , -15°C
Humidity: 67%
Barometer: 30.69 inHg , 1039.3 hPa
Clouds: Clear
Visibility: 10 miles , 16 km
2018/01/17 06:58 KGRK 170658Z AUTO 35008KT 10SM CLR M10/M15 A3069 RMK AO2 SLP409 T11011155
 
KBMQ - Burnet, Texas, USA
Distance from station: WNW 39mi, 64km
Updated: Wed, 17-Jan-2018 12:53am CST
Clear
Clear
 Wind from N
Wind: N 5 mph , 7 km/h
Temperature: 19°F , -7°C
Wind Chill: 12°F , -11°C
Dew Point: 1°F , -17°C
Humidity: 45%
Barometer: 30.70 inHg , 1039.6 hPa
Clouds: Clear
Visibility: 10 miles , 16 km
2018/01/17 06:53 KBMQ 170653Z AUTO 35004KT 10SM CLR M07/M17 A3070 RMK AO2 SLP411 T10671167
KHLR - Ft Hood/Killeen, Texas, USA
Distance from station: N 41mi, 66km
Updated: Wed, 17-Jan-2018 12:58am CST
Clear
Clear
 Wind from N
Wind: N 8 mph , 13 km/h
Temperature: 16°F , -9°C
Wind Chill: 5°F , -15°C
Dew Point: 5°F , -15°C
Humidity: 62%
Barometer: 30.68 inHg , 1038.9 hPa
Clouds: Clear
Visibility: 10 miles , 16 km
2018/01/17 06:58 KHLR 170658Z AUTO 36007KT 10SM CLR M09/M15 A3068 RMK AO2 SLP402 T10881150
 
KTPL - Temple/Miller, Texas, USA
Distance from station: NNE 42mi, 68km
Updated: Wed, 17-Jan-2018 12:51am CST
Clear
Clear
 Wind from N
Wind: N 8 mph , 13 km/h
Temperature: 12°F , -11°C
Wind Chill: 0°F , -18°C
Dew Point: 5°F , -15°C
Humidity: 73%
Barometer: 30.74 inHg , 1041 hPa
Clouds: Clear
Visibility: 10 miles , 16 km
2018/01/17 06:51 KTPL 170651Z AUTO 36007KT 10SM CLR M11/M15 A3074 RMK AO2 SLP427 T11061150 FZRANO
KT35 - Cameron, Texas, USA
Distance from station: ENE 45mi, 72km
Updated: Wed, 17-Jan-2018 1:15am CST
Clear
Clear
 Wind from N
Wind: N 6 mph , 9 km/h
Temperature: 18°F , -8°C
Wind Chill: 10°F , -12°C
Dew Point: 9°F , -13°C
Humidity: 68%
Barometer: 30.74 inHg , 1041 hPa
Clouds: Clear
Visibility: 10 miles , 16 km
2018/01/17 07:15 KT35 170715Z AUTO 36005KT 10SM CLR M08/M13 A3074 RMK AO2 T10791129
 
KDZB - Horseshoe Bay, Texas, USA
Distance from station: W 45mi, 73km
Updated: Wed, 17-Jan-2018 1:15am CST
Clear
Clear
 Wind from N
Wind: N 3 mph , 6 km/h
Temperature: 25°F , -4°C
Dew Point: 5°F , -15°C
Humidity: 42%
Barometer: 30.70 inHg , 1039.6 hPa
Clouds: Clear
Visibility: 10 miles , 16 km
2018/01/17 07:15 KDZB 170715Z AUTO 01003KT 10SM CLR M04/M15 A3070 RMK AO2 T10431151
KGYB - Giddings-Lee, Texas, USA
Distance from station: SE 45mi, 73km
Updated: Wed, 17-Jan-2018 1:15am CST
Clear
Clear
 Wind from N
Wind: N 5 mph , 7 km/h
Temperature: 23°F , -5°C
Wind Chill: 17°F , -8°C
Dew Point: 10°F , -12°C
Humidity: 58%
Barometer: 30.72 inHg , 1040.3 hPa
Clouds: Clear
Visibility: 10 miles , 16 km
2018/01/17 07:15 KGYB 170715Z AUTO 01004KT 10SM CLR M05/M12 A3072 RMK AO2 T10521117
 
KHYI - San Marcos, Texas, USA
Distance from station: SSW 48mi, 78km
Updated: Wed, 17-Jan-2018 12:56am CST
Overcast
Overcast
 Wind from N
Wind: N 13 mph , 20 km/h
Temperature: 27°F , -3°C
Wind Chill: 16°F , -9°C
Dew Point: 10°F , -12°C
Humidity: 50%
Barometer: 30.73 inHg , 1040.6 hPa
Clouds: Overcast
Visibility: 10 miles , 16 km
Cloud details: Overcast 8000 ft
2018/01/17 06:56 KHYI 170656Z AUTO 01011KT 10SM OVC080 M03/M12 A3073 RMK AO2 SLP408 T10281122 $